sensor_id;sensor_type;location;lat;lon;timestamp;pressure;altitude;pressure_sealevel;temperature;humidity
21638;BME280;10980;49.596;6.142;2023-03-19T00:03:19;97993.44;;;10.19;100.00
21638;BME280;10980;49.596;6.142;2023-03-19T00:06:49;97991.91;;;10.16;100.00
21638;BME280;10980;49.596;6.142;2023-03-19T00:10:13;97993.28;;;10.30;100.00
21638;BME280;10980;49.596;6.142;2023-03-19T00:13:44;97991.78;;;10.45;100.00
21638;BME280;10980;49.596;6.142;2023-03-19T00:17:06;97994.13;;;10.48;100.00
21638;BME280;10980;49.596;6.142;2023-03-19T00:20:29;98001.44;;;10.64;100.00
21638;BME280;10980;49.596;6.142;2023-03-19T00:23:53;97998.47;;;10.67;100.00
21638;BME280;10980;49.596;6.142;2023-03-19T00:27:24;98007.00;;;10.70;100.00
21638;BME280;10980;49.596;6.142;2023-03-19T00:30:51;98010.88;;;10.58;100.00
21638;BME280;10980;49.596;6.142;2023-03-19T00:34:25;98005.56;;;10.58;100.00
21638;BME280;10980;49.596;6.142;2023-03-19T00:38:00;98016.25;;;10.66;100.00
21638;BME280;10980;49.596;6.142;2023-03-19T00:41:28;98019.59;;;10.68;100.00
21638;BME280;10980;49.596;6.142;2023-03-19T00:44:50;98012.09;;;10.64;100.00
21638;BME280;10980;49.596;6.142;2023-03-19T00:48:12;98014.06;;;10.80;100.00
21638;BME280;10980;49.596;6.142;2023-03-19T00:51:46;98022.88;;;10.80;100.00
21638;BME280;10980;49.596;6.142;2023-03-19T00:55:15;98014.22;;;10.78;100.00
21638;BME280;10980;49.596;6.142;2023-03-19T00:58:44;98025.41;;;10.82;100.00
21638;BME280;10980;49.596;6.142;2023-03-19T01:02:06;98025.25;;;10.83;100.00
21638;BME280;10980;49.596;6.142;2023-03-19T01:05:48;98017.25;;;10.83;100.00
21638;BME280;10980;49.596;6.142;2023-03-19T01:09:30;98021.75;;;10.83;100.00
21638;BME280;10980;49.596;6.142;2023-03-19T01:12:59;98022.38;;;10.94;100.00
21638;BME280;10980;49.596;6.142;2023-03-19T01:16:52;98020.69;;;11.11;100.00
21638;BME280;10980;49.596;6.142;2023-03-19T01:20:22;98025.41;;;11.17;100.00
21638;BME280;10980;49.596;6.142;2023-03-19T01:23:50;98022.22;;;11.31;100.00
21638;BME280;10980;49.596;6.142;2023-03-19T01:27:21;98015.59;;;11.35;100.00
21638;BME280;10980;49.596;6.142;2023-03-19T01:31:17;98018.13;;;11.45;100.00
21638;BME280;10980;49.596;6.142;2023-03-19T01:35:06;98022.41;;;11.38;100.00
21638;BME280;10980;49.596;6.142;2023-03-19T01:38:31;98019.91;;;11.37;100.00
21638;BME280;10980;49.596;6.142;2023-03-19T01:42:02;98020.13;;;11.43;100.00
21638;BME280;10980;49.596;6.142;2023-03-19T01:46:24;98019.09;;;11.36;100.00
21638;BME280;10980;49.596;6.142;2023-03-19T01:50:24;98019.59;;;11.40;100.00
21638;BME280;10980;49.596;6.142;2023-03-19T01:54:13;98026.91;;;11.38;100.00
21638;BME280;10980;49.596;6.142;2023-03-19T01:58:08;98022.50;;;11.28;100.00
21638;BME280;10980;49.596;6.142;2023-03-19T02:02:27;98021.50;;;11.29;100.00
21638;BME280;10980;49.596;6.142;2023-03-19T02:05:53;98024.41;;;11.36;100.00
21638;BME280;10980;49.596;6.142;2023-03-19T02:09:32;98021.22;;;11.32;100.00
21638;BME280;10980;49.596;6.142;2023-03-19T02:12:56;98016.06;;;11.31;100.00
21638;BME280;10980;49.596;6.142;2023-03-19T02:16:27;98010.03;;;11.29;100.00
21638;BME280;10980;49.596;6.142;2023-03-19T02:20:15;98011.28;;;11.17;100.00
21638;BME280;10980;49.596;6.142;2023-03-19T02:28:09;98001.75;;;10.96;100.00
21638;BME280;10980;49.596;6.142;2023-03-19T02:31:32;98006.41;;;10.94;100.00
21638;BME280;10980;49.596;6.142;2023-03-19T02:34:54;98012.88;;;10.92;100.00
21638;BME280;10980;49.596;6.142;2023-03-19T02:38:25;98006.78;;;10.82;100.00
21638;BME280;10980;49.596;6.142;2023-03-19T02:41:53;98010.16;;;10.56;100.00
21638;BME280;10980;49.596;6.142;2023-03-19T02:45:29;98008.31;;;10.39;100.00
21638;BME280;10980;49.596;6.142;2023-03-19T02:48:58;98012.38;;;10.43;100.00
21638;BME280;10980;49.596;6.142;2023-03-19T02:52:26;98007.81;;;10.53;100.00
21638;BME280;10980;49.596;6.142;2023-03-19T02:55:55;98012.38;;;10.61;100.00
21638;BME280;10980;49.596;6.142;2023-03-19T02:59:17;98012.19;;;10.72;100.00
21638;BME280;10980;49.596;6.142;2023-03-19T03:02:43;98022.72;;;10.64;100.00
21638;BME280;10980;49.596;6.142;2023-03-19T03:06:05;98022.25;;;10.68;100.00
21638;BME280;10980;49.596;6.142;2023-03-19T03:09:28;98019.38;;;10.62;100.00
21638;BME280;10980;49.596;6.142;2023-03-19T03:12:50;98018.13;;;10.56;100.00
21638;BME280;10980;49.596;6.142;2023-03-19T03:16:14;98008.56;;;10.45;100.00
21638;BME280;10980;49.596;6.142;2023-03-19T03:19:36;98025.94;;;10.40;100.00
21638;BME280;10980;49.596;6.142;2023-03-19T03:23:10;98022.16;;;10.42;100.00
21638;BME280;10980;49.596;6.142;2023-03-19T03:26:36;98031.44;;;10.56;100.00
21638;BME280;10980;49.596;6.142;2023-03-19T03:30:10;98023.72;;;10.63;100.00
21638;BME280;10980;49.596;6.142;2023-03-19T03:33:42;98036.16;;;10.62;100.00
21638;BME280;10980;49.596;6.142;2023-03-19T03:37:10;98039.69;;;10.81;100.00
21638;BME280;10980;49.596;6.142;2023-03-19T03:40:42;98039.09;;;10.87;100.00
21638;BME280;10980;49.596;6.142;2023-03-19T03:44:11;98025.88;;;10.95;100.00
21638;BME280;10980;49.596;6.142;2023-03-19T03:47:39;98038.19;;;10.96;100.00
21638;BME280;10980;49.596;6.142;2023-03-19T03:51:03;98036.97;;;11.08;100.00
21638;BME280;10980;49.596;6.142;2023-03-19T03:54:32;98026.00;;;11.11;100.00
21638;BME280;10980;49.596;6.142;2023-03-19T03:57:54;98036.66;;;11.11;100.00
21638;BME280;10980;49.596;6.142;2023-03-19T04:01:18;98040.97;;;11.12;100.00
21638;BME280;10980;49.596;6.142;2023-03-19T04:04:46;98048.66;;;11.15;100.00
21638;BME280;10980;49.596;6.142;2023-03-19T04:08:08;98046.16;;;11.14;100.00
21638;BME280;10980;49.596;6.142;2023-03-19T04:11:35;98041.59;;;11.24;100.00
21638;BME280;10980;49.596;6.142;2023-03-19T04:15:07;98046.28;;;11.30;100.00
21638;BME280;10980;49.596;6.142;2023-03-19T04:18:41;98043.94;;;11.27;100.00
21638;BME280;10980;49.596;6.142;2023-03-19T04:22:02;98049.13;;;11.28;100.00
21638;BME280;10980;49.596;6.142;2023-03-19T04:25:42;98043.09;;;11.26;100.00
21638;BME280;10980;49.596;6.142;2023-03-19T04:29:05;98046.91;;;11.24;100.00
21638;BME280;10980;49.596;6.142;2023-03-19T04:32:32;98043.59;;;11.22;100.00
21638;BME280;10980;49.596;6.142;2023-03-19T04:35:59;98043.22;;;11.17;100.00
21638;BME280;10980;49.596;6.142;2023-03-19T04:39:23;98041.34;;;10.99;100.00
21638;BME280;10980;49.596;6.142;2023-03-19T04:43:03;98049.47;;;10.80;100.00
21638;BME280;10980;49.596;6.142;2023-03-19T04:46:33;98060.97;;;10.81;100.00
21638;BME280;10980;49.596;6.142;2023-03-19T04:49:55;98058.28;;;10.81;100.00
21638;BME280;10980;49.596;6.142;2023-03-19T04:53:20;98058.69;;;10.86;100.00
21638;BME280;10980;49.596;6.142;2023-03-19T04:56:42;98062.94;;;10.79;100.00
21638;BME280;10980;49.596;6.142;2023-03-19T05:00:07;98067.19;;;10.71;100.00
21638;BME280;10980;49.596;6.142;2023-03-19T05:03:33;98076.84;;;10.72;100.00
21638;BME280;10980;49.596;6.142;2023-03-19T05:06:58;98071.75;;;10.79;100.00
21638;BME280;10980;49.596;6.142;2023-03-19T05:10:25;98075.69;;;10.75;100.00
21638;BME280;10980;49.596;6.142;2023-03-19T05:13:48;98067.03;;;10.73;100.00
21638;BME280;10980;49.596;6.142;2023-03-19T05:17:10;98067.56;;;10.77;100.00
21638;BME280;10980;49.596;6.142;2023-03-19T05:20:46;98070.22;;;10.77;100.00
21638;BME280;10980;49.596;6.142;2023-03-19T05:24:14;98073.38;;;10.62;100.00
21638;BME280;10980;49.596;6.142;2023-03-19T05:27:37;98074.19;;;10.72;100.00
21638;BME280;10980;49.596;6.142;2023-03-19T05:31:05;98075.25;;;10.80;100.00
21638;BME280;10980;49.596;6.142;2023-03-19T05:34:39;98082.38;;;10.79;100.00
21638;BME280;10980;49.596;6.142;2023-03-19T05:38:01;98081.94;;;10.84;100.00
21638;BME280;10980;49.596;6.142;2023-03-19T05:41:24;98079.53;;;10.90;100.00
21638;BME280;10980;49.596;6.142;2023-03-19T05:44:54;98084.69;;;10.92;100.00
21638;BME280;10980;49.596;6.142;2023-03-19T05:48:32;98084.16;;;10.88;100.00
21638;BME280;10980;49.596;6.142;2023-03-19T05:51:56;98092.00;;;10.90;100.00
21638;BME280;10980;49.596;6.142;2023-03-19T05:55:17;98091.56;;;10.85;100.00
21638;BME280;10980;49.596;6.142;2023-03-19T05:58:44;98087.84;;;10.78;100.00
21638;BME280;10980;49.596;6.142;2023-03-19T06:02:09;98087.75;;;10.69;100.00
21638;BME280;10980;49.596;6.142;2023-03-19T06:05:32;98091.84;;;10.64;100.00
21638;BME280;10980;49.596;6.142;2023-03-19T06:09:03;98097.50;;;10.51;100.00
21638;BME280;10980;49.596;6.142;2023-03-19T06:12:29;98098.41;;;10.42;100.00
21638;BME280;10980;49.596;6.142;2023-03-19T06:16:11;98089.59;;;10.41;100.00
21638;BME280;10980;49.596;6.142;2023-03-19T06:19:42;98099.34;;;10.41;100.00
21638;BME280;10980;49.596;6.142;2023-03-19T06:23:03;98095.75;;;10.42;100.00
21638;BME280;10980;49.596;6.142;2023-03-19T06:26:26;98102.72;;;10.43;100.00
21638;BME280;10980;49.596;6.142;2023-03-19T06:29:52;98097.13;;;10.46;100.00
21638;BME280;10980;49.596;6.142;2023-03-19T06:33:20;98096.97;;;10.48;100.00
21638;BME280;10980;49.596;6.142;2023-03-19T06:36:43;98101.16;;;10.50;100.00
21638;BME280;10980;49.596;6.142;2023-03-19T06:40:09;98103.13;;;10.48;100.00
21638;BME280;10980;49.596;6.142;2023-03-19T06:43:31;98107.06;;;10.44;100.00
21638;BME280;10980;49.596;6.142;2023-03-19T06:46:53;98105.09;;;10.46;100.00
21638;BME280;10980;49.596;6.142;2023-03-19T06:50:17;98113.44;;;10.51;100.00
21638;BME280;10980;49.596;6.142;2023-03-19T06:53:39;98114.06;;;10.45;100.00
21638;BME280;10980;49.596;6.142;2023-03-19T06:57:01;98120.50;;;10.42;100.00
21638;BME280;10980;49.596;6.142;2023-03-19T07:00:24;98123.28;;;10.41;100.00
21638;BME280;10980;49.596;6.142;2023-03-19T07:03:46;98114.19;;;10.43;100.00
21638;BME280;10980;49.596;6.142;2023-03-19T07:07:14;98129.88;;;10.37;100.00
21638;BME280;10980;49.596;6.142;2023-03-19T07:10:38;98125.25;;;10.39;100.00
21638;BME280;10980;49.596;6.142;2023-03-19T07:14:00;98123.69;;;10.46;100.00
21638;BME280;10980;49.596;6.142;2023-03-19T07:17:24;98123.91;;;10.62;100.00
21638;BME280;10980;49.596;6.142;2023-03-19T07:20:48;98125.09;;;10.78;100.00
21638;BME280;10980;49.596;6.142;2023-03-19T07:24:09;98129.59;;;10.95;100.00
21638;BME280;10980;49.596;6.142;2023-03-19T07:27:31;98139.75;;;11.09;100.00
21638;BME280;10980;49.596;6.142;2023-03-19T07:30:53;98134.44;;;11.27;100.00
21638;BME280;10980;49.596;6.142;2023-03-19T07:34:16;98148.94;;;11.15;100.00
21638;BME280;10980;49.596;6.142;2023-03-19T07:37:41;98147.28;;;11.14;100.00
21638;BME280;10980;49.596;6.142;2023-03-19T07:41:05;98143.19;;;11.19;100.00
21638;BME280;10980;49.596;6.142;2023-03-19T07:44:27;98131.56;;;11.20;100.00
21638;BME280;10980;49.596;6.142;2023-03-19T07:47:51;98132.25;;;11.40;100.00
21638;BME280;10980;49.596;6.142;2023-03-19T07:51:15;98137.34;;;11.69;100.00
21638;BME280;10980;49.596;6.142;2023-03-19T07:54:38;98135.75;;;11.94;100.00
21638;BME280;10980;49.596;6.142;2023-03-19T07:58:00;98132.56;;;12.16;100.00
21638;BME280;10980;49.596;6.142;2023-03-19T08:01:31;98132.88;;;12.39;100.00
21638;BME280;10980;49.596;6.142;2023-03-19T08:04:55;98138.44;;;12.80;100.00
21638;BME280;10980;49.596;6.142;2023-03-19T08:08:17;98138.88;;;13.09;100.00
21638;BME280;10980;49.596;6.142;2023-03-19T08:11:39;98137.31;;;12.99;100.00
21638;BME280;10980;49.596;6.142;2023-03-19T08:15:01;98137.78;;;12.94;100.00
21638;BME280;10980;49.596;6.142;2023-03-19T08:18:24;98142.78;;;12.89;100.00
21638;BME280;10980;49.596;6.142;2023-03-19T08:21:49;98138.09;;;12.83;100.00
21638;BME280;10980;49.596;6.142;2023-03-19T08:25:11;98141.69;;;12.66;100.00
21638;BME280;10980;49.596;6.142;2023-03-19T08:28:34;98145.72;;;12.70;100.00
21638;BME280;10980;49.596;6.142;2023-03-19T08:31:57;98147.50;;;12.95;100.00
21638;BME280;10980;49.596;6.142;2023-03-19T08:35:21;98148.91;;;13.24;100.00
21638;BME280;10980;49.596;6.142;2023-03-19T08:38:43;98144.13;;;13.52;100.00
21638;BME280;10980;49.596;6.142;2023-03-19T08:42:05;98147.53;;;13.86;100.00
21638;BME280;10980;49.596;6.142;2023-03-19T08:45:27;98148.00;;;14.22;100.00
21638;BME280;10980;49.596;6.142;2023-03-19T08:48:49;98147.94;;;14.63;100.00
21638;BME280;10980;49.596;6.142;2023-03-19T08:52:11;98152.88;;;14.90;100.00
21638;BME280;10980;49.596;6.142;2023-03-19T08:55:33;98150.34;;;15.28;100.00
21638;BME280;10980;49.596;6.142;2023-03-19T08:58:56;98153.91;;;15.20;100.00
21638;BME280;10980;49.596;6.142;2023-03-19T09:02:18;98159.66;;;15.01;100.00
21638;BME280;10980;49.596;6.142;2023-03-19T09:05:40;98157.31;;;14.59;100.00
21638;BME280;10980;49.596;6.142;2023-03-19T09:09:02;98161.00;;;14.50;100.00
21638;BME280;10980;49.596;6.142;2023-03-19T09:12:24;98163.97;;;14.71;100.00
21638;BME280;10980;49.596;6.142;2023-03-19T09:15:46;98163.53;;;14.99;100.00
21638;BME280;10980;49.596;6.142;2023-03-19T09:19:09;98169.34;;;15.41;100.00
21638;BME280;10980;49.596;6.142;2023-03-19T09:22:31;98170.53;;;15.70;100.00
21638;BME280;10980;49.596;6.142;2023-03-19T09:25:53;98179.94;;;15.35;100.00
21638;BME280;10980;49.596;6.142;2023-03-19T09:29:16;98173.22;;;15.00;100.00
21638;BME280;10980;49.596;6.142;2023-03-19T09:32:38;98176.53;;;15.18;100.00
21638;BME280;10980;49.596;6.142;2023-03-19T09:36:00;98179.63;;;15.61;100.00
21638;BME280;10980;49.596;6.142;2023-03-19T09:39:22;98182.94;;;15.40;100.00
21638;BME280;10980;49.596;6.142;2023-03-19T09:43:03;98176.56;;;15.02;100.00
21638;BME280;10980;49.596;6.142;2023-03-19T09:46:58;98177.47;;;15.25;100.00
21638;BME280;10980;49.596;6.142;2023-03-19T09:50:28;98190.13;;;15.39;100.00
21638;BME280;10980;49.596;6.142;2023-03-19T09:54:19;98190.53;;;14.81;100.00
21638;BME280;10980;49.596;6.142;2023-03-19T09:57:45;98195.28;;;14.38;100.00
21638;BME280;10980;49.596;6.142;2023-03-19T10:01:36;98186.44;;;14.05;100.00
21638;BME280;10980;49.596;6.142;2023-03-19T10:05:31;98193.78;;;13.95;100.00
21638;BME280;10980;49.596;6.142;2023-03-19T10:09:46;98192.13;;;13.94;100.00
21638;BME280;10980;49.596;6.142;2023-03-19T10:13:21;98192.44;;;13.91;100.00
21638;BME280;10980;49.596;6.142;2023-03-19T10:16:51;98201.78;;;13.79;100.00
21638;BME280;10980;49.596;6.142;2023-03-19T10:20:28;98190.06;;;13.63;100.00
21638;BME280;10980;49.596;6.142;2023-03-19T10:24:26;98200.31;;;13.92;100.00
21638;BME280;10980;49.596;6.142;2023-03-19T10:28:13;98203.81;;;14.17;100.00
21638;BME280;10980;49.596;6.142;2023-03-19T10:31:43;98197.47;;;14.35;100.00
21638;BME280;10980;49.596;6.142;2023-03-19T10:35:40;98196.59;;;15.14;100.00
21638;BME280;10980;49.596;6.142;2023-03-19T10:39:05;98203.22;;;15.34;100.00
21638;BME280;10980;49.596;6.142;2023-03-19T10:42:59;98205.00;;;15.11;100.00
21638;BME280;10980;49.596;6.142;2023-03-19T10:46:21;98208.13;;;14.75;100.00
21638;BME280;10980;49.596;6.142;2023-03-19T10:49:43;98214.22;;;14.45;100.00
21638;BME280;10980;49.596;6.142;2023-03-19T10:56:46;98219.50;;;13.96;100.00
21638;BME280;10980;49.596;6.142;2023-03-19T11:00:24;98217.50;;;13.73;100.00
21638;BME280;10980;49.596;6.142;2023-03-19T11:03:54;98221.25;;;13.47;100.00
21638;BME280;10980;49.596;6.142;2023-03-19T11:07:20;98222.38;;;13.36;100.00
21638;BME280;10980;49.596;6.142;2023-03-19T11:10:48;98228.25;;;13.05;100.00
21638;BME280;10980;49.596;6.142;2023-03-19T11:14:40;98226.81;;;12.85;100.00
21638;BME280;10980;49.596;6.142;2023-03-19T11:18:17;98222.84;;;12.63;100.00
21638;BME280;10980;49.596;6.142;2023-03-19T11:21:40;98224.75;;;12.71;100.00
21638;BME280;10980;49.596;6.142;2023-03-19T11:28:53;98226.66;;;12.87;100.00
21638;BME280;10980;49.596;6.142;2023-03-19T11:32:51;98217.81;;;12.86;100.00
21638;BME280;10980;49.596;6.142;2023-03-19T11:40:45;98219.41;;;12.45;100.00
21638;BME280;10980;49.596;6.142;2023-03-19T11:48:30;98217.81;;;12.34;100.00
21638;BME280;10980;49.596;6.142;2023-03-19T11:52:32;98222.53;;;12.40;100.00
21638;BME280;10980;49.596;6.142;2023-03-19T11:56:17;98219.09;;;12.74;100.00
21638;BME280;10980;49.596;6.142;2023-03-19T12:04:08;98208.44;;;13.66;100.00
21638;BME280;10980;49.596;6.142;2023-03-19T12:08:04;98211.19;;;14.15;100.00
21638;BME280;10980;49.596;6.142;2023-03-19T12:11:57;98209.13;;;14.42;100.00
21638;BME280;10980;49.596;6.142;2023-03-19T12:15:34;98198.03;;;14.85;100.00
21638;BME280;10980;49.596;6.142;2023-03-19T12:23:56;98190.41;;;16.21;100.00
21638;BME280;10980;49.596;6.142;2023-03-19T12:34:59;98195.84;;;17.69;100.00
21638;BME280;10980;49.596;6.142;2023-03-19T12:38:39;98184.78;;;18.21;100.00
21638;BME280;10980;49.596;6.142;2023-03-19T12:42:07;98188.25;;;18.43;100.00
21638;BME280;10980;49.596;6.142;2023-03-19T12:45:55;98185.00;;;18.47;100.00
21638;BME280;10980;49.596;6.142;2023-03-19T12:53:17;98189.50;;;17.98;100.00
21638;BME280;10980;49.596;6.142;2023-03-19T12:57:14;98188.59;;;17.54;100.00
21638;BME280;10980;49.596;6.142;2023-03-19T13:00:58;98184.34;;;17.60;100.00
21638;BME280;10980;49.596;6.142;2023-03-19T13:04:32;98174.13;;;17.70;100.00
21638;BME280;10980;49.596;6.142;2023-03-19T13:08:27;98173.50;;;17.68;100.00
21638;BME280;10980;49.596;6.142;2023-03-19T13:12:29;98174.81;;;17.57;100.00
21638;BME280;10980;49.596;6.142;2023-03-19T13:16:02;98168.53;;;17.36;100.00
21638;BME280;10980;49.596;6.142;2023-03-19T13:19:42;98153.75;;;17.61;100.00
21638;BME280;10980;49.596;6.142;2023-03-19T13:23:12;98164.16;;;17.13;100.00
21638;BME280;10980;49.596;6.142;2023-03-19T13:26:35;98167.09;;;15.84;100.00
21638;BME280;10980;49.596;6.142;2023-03-19T13:33:36;98162.78;;;15.75;100.00
21638;BME280;10980;49.596;6.142;2023-03-19T13:37:19;98162.19;;;15.88;100.00
21638;BME280;10980;49.596;6.142;2023-03-19T13:40:52;98168.41;;;16.11;100.00
21638;BME280;10980;49.596;6.142;2023-03-19T13:47:42;98166.94;;;16.76;100.00
21638;BME280;10980;49.596;6.142;2023-03-19T13:51:23;98159.94;;;17.25;100.00
21638;BME280;10980;49.596;6.142;2023-03-19T13:54:53;98165.91;;;17.57;100.00
21638;BME280;10980;49.596;6.142;2023-03-19T13:58:26;98163.31;;;17.13;100.00
21638;BME280;10980;49.596;6.142;2023-03-19T14:05:55;98169.47;;;16.02;100.00
21638;BME280;10980;49.596;6.142;2023-03-19T14:09:39;98162.47;;;16.16;100.00
21638;BME280;10980;49.596;6.142;2023-03-19T14:13:08;98173.63;;;16.04;100.00
21638;BME280;10980;49.596;6.142;2023-03-19T14:16:41;98182.00;;;15.25;100.00
21638;BME280;10980;49.596;6.142;2023-03-19T14:23:38;98196.47;;;13.95;100.00
21638;BME280;10980;49.596;6.142;2023-03-19T14:27:30;98198.28;;;13.94;100.00
21638;BME280;10980;49.596;6.142;2023-03-19T14:30:55;98195.09;;;13.83;100.00
21638;BME280;10980;49.596;6.142;2023-03-19T14:34:34;98193.94;;;14.26;100.00
21638;BME280;10980;49.596;6.142;2023-03-19T14:38:01;98189.34;;;14.83;100.00
21638;BME280;10980;49.596;6.142;2023-03-19T14:41:35;98186.66;;;15.31;100.00
21638;BME280;10980;49.596;6.142;2023-03-19T14:48:51;98177.94;;;15.68;100.00
21638;BME280;10980;49.596;6.142;2023-03-19T14:52:42;98179.91;;;15.97;100.00
21638;BME280;10980;49.596;6.142;2023-03-19T14:59:38;98171.44;;;15.85;100.00
21638;BME280;10980;49.596;6.142;2023-03-19T15:03:00;98171.50;;;15.77;100.00
21638;BME280;10980;49.596;6.142;2023-03-19T15:06:23;98174.25;;;15.69;100.00
21638;BME280;10980;49.596;6.142;2023-03-19T15:09:53;98173.50;;;15.75;100.00
21638;BME280;10980;49.596;6.142;2023-03-19T15:14:04;98180.53;;;15.76;100.00
21638;BME280;10980;49.596;6.142;2023-03-19T15:17:35;98171.09;;;15.34;100.00
21638;BME280;10980;49.596;6.142;2023-03-19T15:21:03;98174.16;;;15.23;100.00
21638;BME280;10980;49.596;6.142;2023-03-19T15:24:26;98180.19;;;15.17;100.00
21638;BME280;10980;49.596;6.142;2023-03-19T15:28:06;98186.66;;;14.91;100.00
21638;BME280;10980;49.596;6.142;2023-03-19T15:31:46;98190.41;;;14.42;100.00
21638;BME280;10980;49.596;6.142;2023-03-19T15:35:32;98189.47;;;14.02;100.00
21638;BME280;10980;49.596;6.142;2023-03-19T15:39:09;98200.44;;;13.83;100.00
21638;BME280;10980;49.596;6.142;2023-03-19T15:42:34;98206.31;;;13.78;100.00
21638;BME280;10980;49.596;6.142;2023-03-19T15:45:56;98203.47;;;13.80;100.00
21638;BME280;10980;49.596;6.142;2023-03-19T15:49:30;98206.63;;;13.75;100.00
21638;BME280;10980;49.596;6.142;2023-03-19T15:53:06;98206.50;;;13.85;100.00
21638;BME280;10980;49.596;6.142;2023-03-19T15:56:30;98213.34;;;14.12;100.00
21638;BME280;10980;49.596;6.142;2023-03-19T15:59:56;98205.97;;;14.38;100.00
21638;BME280;10980;49.596;6.142;2023-03-19T16:03:39;98223.19;;;14.68;100.00
21638;BME280;10980;49.596;6.142;2023-03-19T16:07:02;98218.31;;;14.80;100.00
21638;BME280;10980;49.596;6.142;2023-03-19T16:10:36;98233.22;;;14.66;100.00
21638;BME280;10980;49.596;6.142;2023-03-19T16:17:35;98241.09;;;14.43;100.00
21638;BME280;10980;49.596;6.142;2023-03-19T16:21:16;98252.78;;;14.34;100.00
21638;BME280;10980;49.596;6.142;2023-03-19T16:24:42;98254.63;;;14.25;100.00
21638;BME280;10980;49.596;6.142;2023-03-19T16:28:15;98258.09;;;13.93;100.00
21638;BME280;10980;49.596;6.142;2023-03-19T16:31:44;98262.25;;;13.80;100.00
21638;BME280;10980;49.596;6.142;2023-03-19T16:35:16;98277.06;;;13.66;100.00
21638;BME280;10980;49.596;6.142;2023-03-19T16:39:12;98271.53;;;13.51;100.00
21638;BME280;10980;49.596;6.142;2023-03-19T16:46:06;98286.31;;;13.37;100.00
21638;BME280;10980;49.596;6.142;2023-03-19T16:49:31;98300.66;;;13.28;100.00
21638;BME280;10980;49.596;6.142;2023-03-19T16:52:53;98294.03;;;13.14;100.00
21638;BME280;10980;49.596;6.142;2023-03-19T16:56:15;98298.31;;;13.07;100.00
21638;BME280;10980;49.596;6.142;2023-03-19T16:59:39;98299.03;;;13.09;100.00
21638;BME280;10980;49.596;6.142;2023-03-19T17:03:02;98300.69;;;13.10;100.00
21638;BME280;10980;49.596;6.142;2023-03-19T17:06:24;98299.38;;;13.14;100.00
21638;BME280;10980;49.596;6.142;2023-03-19T17:09:50;98299.31;;;13.06;100.00
21638;BME280;10980;49.596;6.142;2023-03-19T17:13:27;98295.38;;;13.10;100.00
21638;BME280;10980;49.596;6.142;2023-03-19T17:16:50;98293.03;;;13.16;100.00
21638;BME280;10980;49.596;6.142;2023-03-19T17:20:45;98294.81;;;13.07;100.00
21638;BME280;10980;49.596;6.142;2023-03-19T17:24:30;98285.03;;;12.90;100.00
21638;BME280;10980;49.596;6.142;2023-03-19T17:27:53;98284.44;;;12.70;100.00
21638;BME280;10980;49.596;6.142;2023-03-19T17:31:27;98303.97;;;12.52;100.00
21638;BME280;10980;49.596;6.142;2023-03-19T17:34:50;98300.03;;;12.39;100.00
21638;BME280;10980;49.596;6.142;2023-03-19T17:38:16;98311.44;;;12.13;100.00
21638;BME280;10980;49.596;6.142;2023-03-19T17:41:38;98314.13;;;11.96;100.00
21638;BME280;10980;49.596;6.142;2023-03-19T17:45:00;98331.09;;;11.94;100.00
21638;BME280;10980;49.596;6.142;2023-03-19T17:48:25;98331.78;;;11.97;100.00
21638;BME280;10980;49.596;6.142;2023-03-19T17:51:47;98355.44;;;12.00;100.00
21638;BME280;10980;49.596;6.142;2023-03-19T17:55:23;98356.13;;;12.02;100.00
21638;BME280;10980;49.596;6.142;2023-03-19T17:58:45;98367.34;;;12.05;100.00
21638;BME280;10980;49.596;6.142;2023-03-19T18:02:26;98366.06;;;12.09;100.00
21638;BME280;10980;49.596;6.142;2023-03-19T18:05:49;98376.03;;;12.07;100.00
21638;BME280;10980;49.596;6.142;2023-03-19T18:09:22;98385.84;;;12.07;100.00
21638;BME280;10980;49.596;6.142;2023-03-19T18:12:45;98384.94;;;12.16;100.00
21638;BME280;10980;49.596;6.142;2023-03-19T18:16:29;98397.88;;;12.11;100.00
21638;BME280;10980;49.596;6.142;2023-03-19T18:19:53;98401.38;;;12.11;100.00
21638;BME280;10980;49.596;6.142;2023-03-19T18:23:15;98399.72;;;12.10;100.00
21638;BME280;10980;49.596;6.142;2023-03-19T18:26:37;98399.56;;;12.12;100.00
21638;BME280;10980;49.596;6.142;2023-03-19T18:30:00;98400.91;;;11.98;100.00
21638;BME280;10980;49.596;6.142;2023-03-19T18:33:28;98409.72;;;11.99;100.00
21638;BME280;10980;49.596;6.142;2023-03-19T18:36:58;98415.91;;;11.99;100.00
21638;BME280;10980;49.596;6.142;2023-03-19T18:40:27;98415.84;;;12.09;100.00
21638;BME280;10980;49.596;6.142;2023-03-19T18:43:52;98418.53;;;12.09;100.00
21638;BME280;10980;49.596;6.142;2023-03-19T18:47:15;98418.41;;;12.01;100.00
21638;BME280;10980;49.596;6.142;2023-03-19T18:50:38;98427.75;;;11.87;100.00
21638;BME280;10980;49.596;6.142;2023-03-19T18:54:01;98439.84;;;11.81;100.00
21638;BME280;10980;49.596;6.142;2023-03-19T18:57:22;98441.91;;;11.87;100.00
21638;BME280;10980;49.596;6.142;2023-03-19T19:00:45;98436.19;;;11.82;100.00
21638;BME280;10980;49.596;6.142;2023-03-19T19:04:13;98447.13;;;11.79;100.00
21638;BME280;10980;49.596;6.142;2023-03-19T19:07:40;98451.03;;;11.85;100.00
21638;BME280;10980;49.596;6.142;2023-03-19T19:11:04;98446.00;;;11.82;100.00
21638;BME280;10980;49.596;6.142;2023-03-19T19:14:27;98457.22;;;11.76;100.00
21638;BME280;10980;49.596;6.142;2023-03-19T19:17:51;98459.31;;;11.72;100.00
21638;BME280;10980;49.596;6.142;2023-03-19T19:21:13;98459.47;;;11.71;100.00
21638;BME280;10980;49.596;6.142;2023-03-19T19:24:35;98478.25;;;11.69;100.00
21638;BME280;10980;49.596;6.142;2023-03-19T19:28:01;98463.94;;;11.70;100.00
21638;BME280;10980;49.596;6.142;2023-03-19T19:31:27;98473.22;;;11.66;100.00